Time;durP1;ratioP1;P1;durP2;ratioP2;P2;SDS_P1;SDS_P2;PMS_P1;PMS_P2;Temp;Humidity;BMP_temperature;BMP_pressure;BME280_temperature;BME280_humidity;BME280_pressure;Samples;Min_cycle;Max_cycle;Signal;HPM_P1;HPM_P2
2022/08/30 00:01:01;;;;;;;3.30;2.72;;;18.00;99.90;;;;;;5064434;28;20028;-36
2022/08/30 00:03:29;;;;;;;5.18;2.53;;;18.00;99.90;;;;;;5065001;28;20054;-37
2022/08/30 00:05:55;;;;;;;2.25;2.00;;;18.00;99.90;;;;;;5063349;28;20029;-36
2022/08/30 00:08:20;;;;;;;2.15;1.95;;;18.00;99.90;;;;;;5064494;28;20021;-36
2022/08/30 00:10:50;;;;;;;5.50;2.13;;;18.00;99.90;;;;;;5064567;28;20028;-35
2022/08/30 00:13:16;;;;;;;5.38;2.50;;;17.90;99.90;;;;;;5063796;28;20056;-36
2022/08/30 00:15:42;;;;;;;2.85;2.00;;;17.90;99.90;;;;;;5064255;28;20103;-34
2022/08/30 00:18:08;;;;;;;5.65;2.92;;;17.90;99.90;;;;;;5063980;28;20498;-36
2022/08/30 00:20:35;;;;;;;6.22;3.03;;;17.90;99.90;;;;;;5063472;28;20025;-35
2022/08/30 00:23:01;;;;;;;4.32;2.40;;;17.90;99.90;;;;;;5063796;28;20082;-36
2022/08/30 00:25:27;;;;;;;5.75;2.97;;;17.80;99.90;;;;;;5063286;28;20139;-36
2022/08/30 00:27:53;;;;;;;3.80;2.53;;;17.80;99.90;;;;;;5064535;28;20451;-35
2022/08/30 00:30:20;;;;;;;5.65;3.00;;;17.80;99.90;;;;;;5064193;28;20531;-35
2022/08/30 00:32:45;;;;;;;2.63;2.30;;;17.70;99.90;;;;;;5062622;28;20043;-36
2022/08/30 00:35:14;;;;;;;4.22;2.90;;;17.70;99.90;;;;;;5064953;28;20032;-36
2022/08/30 00:37:40;;;;;;;3.70;3.03;;;17.70;99.90;;;;;;5068088;28;20036;-35
2022/08/30 00:40:08;;;;;;;4.82;3.33;;;17.70;99.90;;;;;;5067229;28;20492;-36
2022/08/30 00:42:34;;;;;;;3.08;2.78;;;17.70;99.90;;;;;;5067941;28;20024;-36
2022/08/30 00:45:08;;;;;;;3.35;2.55;;;17.70;99.90;;;;;;5067951;28;20025;-34
2022/08/30 00:47:34;;;;;;;3.47;2.88;;;17.70;99.90;;;;;;5067047;28;20020;-35
2022/08/30 00:50:00;;;;;;;2.80;2.55;;;17.70;99.90;;;;;;5068346;28;20372;-35
2022/08/30 00:52:26;;;;;;;2.60;2.10;;;17.60;99.90;;;;;;5068194;28;20029;-35
2022/08/30 00:54:52;;;;;;;4.60;3.17;;;17.60;99.90;;;;;;5067074;28;20044;-34
2022/08/30 00:57:18;;;;;;;3.05;2.75;;;17.60;99.90;;;;;;5068019;28;20173;-35
2022/08/30 00:59:48;;;;;;;4.20;2.80;;;17.60;99.90;;;;;;5067013;28;20326;-35
2022/08/30 01:02:15;;;;;;;3.60;2.75;;;17.60;99.90;;;;;;5067609;28;20025;-35
2022/08/30 01:04:43;;;;;;;3.78;2.70;;;17.60;99.90;;;;;;5067327;28;20028;-35
2022/08/30 01:07:08;;;;;;;4.90;3.22;;;17.50;99.90;;;;;;5068145;28;20093;-37
2022/08/30 01:09:35;;;;;;;3.17;2.72;;;17.60;99.90;;;;;;5067419;28;20294;-36
2022/08/30 01:12:02;;;;;;;2.88;2.65;;;17.50;99.90;;;;;;5067729;28;20045;-35
2022/08/30 01:14:28;;;;;;;4.22;2.75;;;17.50;99.90;;;;;;5067149;28;20111;-37
2022/08/30 01:16:56;;;;;;;4.18;2.90;;;17.50;99.90;;;;;;5066988;28;20459;-35
2022/08/30 01:19:46;;;;;;;2.70;2.50;;;17.50;99.90;;;;;;5067224;28;20115;-35
2022/08/30 01:22:36;;;;;;;3.33;2.97;;;17.50;99.90;;;;;;5066559;28;20048;-37
2022/08/30 01:25:05;;;;;;;3.92;2.60;;;17.50;99.90;;;;;;5067116;28;20033;-35
2022/08/30 01:27:31;;;;;;;3.53;3.22;;;17.50;99.90;;;;;;5066789;28;20073;-37
2022/08/30 01:29:58;;;;;;;2.78;2.38;;;17.40;99.90;;;;;;5066242;28;20442;-37
2022/08/30 01:32:30;;;;;;;5.55;3.72;;;17.40;99.90;;;;;;5067222;28;20214;-35
2022/08/30 01:34:56;;;;;;;4.85;3.33;;;17.40;99.90;;;;;;5067521;28;20429;-35
2022/08/30 01:37:31;;;;;;;3.92;3.05;;;17.40;99.90;;;;;;5066981;28;20037;-36
2022/08/30 01:39:58;;;;;;;4.88;3.28;;;17.30;99.90;;;;;;5067571;28;20024;-36
2022/08/30 01:42:23;;;;;;;3.00;2.80;;;17.40;99.90;;;;;;5067586;28;20024;-36
2022/08/30 01:44:49;;;;;;;4.43;3.47;;;17.30;99.90;;;;;;5066803;28;20024;-36
2022/08/30 01:47:17;;;;;;;3.80;3.45;;;17.30;99.90;;;;;;5067891;28;20527;-35
2022/08/30 01:49:43;;;;;;;3.28;2.97;;;17.30;99.90;;;;;;5067020;28;20043;-34
2022/08/30 01:52:08;;;;;;;4.10;3.22;;;17.30;99.90;;;;;;5067341;28;20020;-35
2022/08/30 01:54:37;;;;;;;3.47;2.90;;;17.30;99.90;;;;;;5066457;28;20040;-35
2022/08/30 01:57:03;;;;;;;2.55;2.35;;;17.30;99.90;;;;;;5066902;28;20078;-35
2022/08/30 01:59:29;;;;;;;3.50;2.95;;;17.20;99.90;;;;;;5067104;28;20123;-36
2022/08/30 02:01:54;;;;;;;3.40;2.70;;;17.20;99.90;;;;;;5066648;28;20032;-37
2022/08/30 02:04:20;;;;;;;3.08;2.80;;;17.20;99.90;;;;;;5066296;28;20354;-36
2022/08/30 02:06:45;;;;;;;3.33;3.03;;;17.20;99.90;;;;;;5065829;28;20035;-35
2022/08/30 02:09:12;;;;;;;3.47;3.17;;;17.20;99.90;;;;;;5066814;28;20082;-37
2022/08/30 02:11:38;;;;;;;3.83;3.40;;;17.20;99.90;;;;;;5066035;28;20037;-36
2022/08/30 02:14:04;;;;;;;4.18;3.20;;;17.20;99.90;;;;;;5066859;28;20427;-36
2022/08/30 02:16:30;;;;;;;3.20;2.90;;;17.10;99.90;;;;;;5066375;28;20037;-37
2022/08/30 02:18:56;;;;;;;4.05;3.50;;;17.10;99.90;;;;;;5066381;28;20073;-37
2022/08/30 02:21:22;;;;;;;4.72;3.63;;;17.10;99.90;;;;;;5066444;28;20550;-35
2022/08/30 02:23:49;;;;;;;3.42;3.00;;;17.10;99.90;;;;;;5065975;28;20512;-35
2022/08/30 02:26:15;;;;;;;4.68;3.90;;;17.10;99.90;;;;;;5065801;28;20108;-35
2022/08/30 02:28:41;;;;;;;4.07;3.55;;;17.00;99.90;;;;;;5066668;28;20086;-36
2022/08/30 02:31:07;;;;;;;4.03;3.38;;;17.00;99.90;;;;;;5065963;28;20103;-37
2022/08/30 02:33:32;;;;;;;5.70;4.75;;;17.00;99.90;;;;;;5065401;28;20028;-34
2022/08/30 02:36:01;;;;;;;4.57;4.05;;;17.00;99.90;;;;;;5065689;28;20028;-35
2022/08/30 02:38:28;;;;;;;4.85;3.72;;;17.00;99.90;;;;;;5065663;28;20024;-36
2022/08/30 02:40:53;;;;;;;4.22;3.83;;;17.00;99.90;;;;;;5065273;28;20024;-35
2022/08/30 02:43:19;;;;;;;4.22;3.50;;;16.90;99.90;;;;;;5066277;28;20028;-35
2022/08/30 02:45:44;;;;;;;4.05;3.65;;;17.00;99.90;;;;;;5065506;28;21129;-35
2022/08/30 02:48:10;;;;;;;4.40;3.33;;;16.90;99.90;;;;;;5065631;28;20516;-35
2022/08/30 02:50:41;;;;;;;5.13;3.55;;;16.90;99.90;;;;;;5066159;28;20490;-35
2022/08/30 02:53:06;;;;;;;4.57;4.18;;;16.90;99.90;;;;;;5065122;28;20046;-36
2022/08/30 02:55:32;;;;;;;4.20;3.90;;;16.80;99.90;;;;;;5065746;28;20163;-36
2022/08/30 02:57:57;;;;;;;3.95;3.60;;;16.80;99.90;;;;;;5065219;28;20072;-36
2022/08/30 03:00:23;;;;;;;3.50;3.20;;;16.90;99.90;;;;;;5064968;28;20228;-36
2022/08/30 03:02:49;;;;;;;4.30;3.90;;;16.80;99.90;;;;;;5065350;28;20063;-36
2022/08/30 03:05:16;;;;;;;3.97;3.60;;;16.80;99.90;;;;;;5065679;28;20048;-36
2022/08/30 03:07:42;;;;;;;4.28;3.85;;;16.80;99.90;;;;;;5064530;28;20089;-36
2022/08/30 03:10:09;;;;;;;4.13;3.75;;;16.80;99.90;;;;;;5065424;28;20027;-38
2022/08/30 03:12:35;;;;;;;4.82;4.43;;;16.70;99.90;;;;;;5065094;28;20054;-36
2022/08/30 03:15:01;;;;;;;5.40;4.90;;;16.70;99.90;;;;;;5064639;28;20458;-36
2022/08/30 03:17:27;;;;;;;5.65;4.80;;;16.70;99.90;;;;;;5064735;28;20542;-35
2022/08/30 03:19:53;;;;;;;4.63;4.20;;;16.70;99.90;;;;;;5058684;28;20439;-36
2022/08/30 03:22:18;;;;;;;4.93;4.43;;;16.70;99.90;;;;;;5045156;28;20433;-36
2022/08/30 03:24:44;;;;;;;5.35;4.85;;;16.60;99.90;;;;;;5064243;28;20078;-36
2022/08/30 03:27:11;;;;;;;5.35;4.85;;;16.60;99.90;;;;;;5065381;28;20322;-36
2022/08/30 03:29:38;;;;;;;5.45;4.95;;;16.60;99.90;;;;;;5064223;28;20024;-37
2022/08/30 03:32:04;;;;;;;5.65;4.88;;;16.60;99.90;;;;;;5065101;28;20860;-35
2022/08/30 03:34:30;;;;;;;4.90;4.50;;;16.60;99.90;;;;;;5064186;28;20028;-35
2022/08/30 03:36:57;;;;;;;5.30;4.80;;;16.60;99.90;;;;;;5063855;28;20039;-36
2022/08/30 03:39:24;;;;;;;5.10;4.70;;;16.60;99.90;;;;;;5065134;28;20477;-37
2022/08/30 03:41:50;;;;;;;5.93;5.32;;;16.60;99.90;;;;;;5064653;28;20081;-36
2022/08/30 03:44:15;;;;;;;4.18;3.78;;;16.50;99.90;;;;;;5064519;28;20121;-36
2022/08/30 03:46:41;;;;;;;4.90;4.45;;;16.50;99.90;;;;;;5064666;28;20074;-36
2022/08/30 03:49:07;;;;;;;4.75;4.32;;;16.50;99.90;;;;;;5064394;28;20025;-34
2022/08/30 03:51:33;;;;;;;4.05;3.75;;;16.50;99.90;;;;;;5063940;28;20031;-35
2022/08/30 03:54:00;;;;;;;5.18;4.78;;;16.50;99.90;;;;;;5064167;28;20806;-35
2022/08/30 03:56:26;;;;;;;4.00;3.70;;;16.50;99.90;;;;;;5063394;28;20037;-35
2022/08/30 03:58:51;;;;;;;5.15;4.57;;;16.40;99.90;;;;;;5064014;28;20039;-35
2022/08/30 04:01:17;;;;;;;5.10;4.60;;;16.40;99.90;;;;;;5065061;28;20111;-36
2022/08/30 04:03:42;;;;;;;5.88;5.38;;;16.40;99.90;;;;;;5064181;28;20031;-35
2022/08/30 04:06:08;;;;;;;4.22;3.83;;;16.40;99.90;;;;;;5064830;28;20020;-36
2022/08/30 04:08:34;;;;;;;4.72;4.32;;;16.30;99.90;;;;;;5065797;28;20028;-35
2022/08/30 04:11:01;;;;;;;4.68;4.32;;;16.30;99.90;;;;;;5062590;28;20027;-36
2022/08/30 04:13:27;;;;;;;4.22;3.92;;;16.30;99.90;;;;;;5065005;28;20035;-35
2022/08/30 04:15:53;;;;;;;4.85;4.32;;;16.30;99.90;;;;;;5064290;28;20533;-36
2022/08/30 04:18:20;;;;;;;5.22;4.72;;;16.30;99.90;;;;;;5063733;28;20076;-36
2022/08/30 04:20:46;;;;;;;4.63;4.22;;;16.30;99.90;;;;;;5063747;28;20025;-35
2022/08/30 04:23:12;;;;;;;5.00;4.60;;;16.30;99.90;;;;;;5064795;28;20495;-35
2022/08/30 04:25:40;;;;;;;5.22;4.70;;;16.30;99.90;;;;;;5063411;28;20425;-36
2022/08/30 04:28:06;;;;;;;5.38;4.88;;;16.20;99.90;;;;;;5064480;28;20025;-35
2022/08/30 04:30:33;;;;;;;4.72;4.32;;;16.20;99.90;;;;;;5064392;28;20112;-35
2022/08/30 04:32:59;;;;;;;4.80;4.40;;;16.20;99.90;;;;;;5063538;28;20029;-35
2022/08/30 04:35:25;;;;;;;4.28;3.97;;;16.20;99.90;;;;;;5063809;28;20385;-36
2022/08/30 04:37:51;;;;;;;4.70;4.32;;;16.20;99.90;;;;;;5064235;28;20040;-35
2022/08/30 04:40:17;;;;;;;4.10;3.70;;;16.20;99.90;;;;;;5063901;28;20031;-35
2022/08/30 04:42:42;;;;;;;5.00;4.53;;;16.20;99.90;;;;;;5063920;28;20472;-35
2022/08/30 04:45:14;;;;;;;5.03;4.60;;;16.20;99.90;;;;;;5064205;28;20017;-35
2022/08/30 04:47:41;;;;;;;5.03;4.45;;;16.20;99.90;;;;;;5059330;28;20029;-35
2022/08/30 04:50:09;;;;;;;4.28;3.88;;;16.20;99.90;;;;;;5063678;28;20472;-36
2022/08/30 04:52:35;;;;;;;4.63;4.22;;;16.10;99.90;;;;;;5063284;28;20287;-35
2022/08/30 04:55:01;;;;;;;6.47;4.05;;;16.20;99.90;;;;;;5063993;28;20024;-36
2022/08/30 04:57:27;;;;;;;4.20;3.90;;;16.20;99.90;;;;;;5063721;28;20060;-36
2022/08/30 04:59:53;;;;;;;3.92;3.63;;;16.20;99.90;;;;;;5062853;28;20074;-35
2022/08/30 05:02:19;;;;;;;3.95;3.65;;;16.20;99.90;;;;;;5063816;28;20021;-36
2022/08/30 05:07:31;;;;;;;4.13;3.72;;;16.20;99.90;;;;;;5063019;28;20044;-36
2022/08/30 05:09:57;;;;;;;5.15;3.90;;;16.20;99.90;;;;;;5063492;28;20027;-36
2022/08/30 05:12:23;;;;;;;4.07;3.72;;;16.20;99.90;;;;;;5063404;28;20111;-36
2022/08/30 05:14:49;;;;;;;4.90;4.43;;;16.20;99.90;;;;;;5063729;28;20027;-36
2022/08/30 05:17:15;;;;;;;4.05;3.75;;;16.20;99.90;;;;;;5063899;28;20040;-36
2022/08/30 05:19:41;;;;;;;4.72;4.18;;;16.20;99.90;;;;;;5063368;28;20050;-35
2022/08/30 05:22:06;;;;;;;5.40;4.50;;;16.30;99.90;;;;;;5064693;28;20444;-37
2022/08/30 05:24:33;;;;;;;4.05;3.65;;;16.30;99.90;;;;;;5066814;28;20422;-35
2022/08/30 05:26:59;;;;;;;3.92;3.63;;;16.30;99.90;;;;;;5067007;28;20042;-36
2022/08/30 05:29:25;;;;;;;3.50;3.20;;;16.30;99.90;;;;;;5066749;28;20646;-36
2022/08/30 05:31:50;;;;;;;3.88;3.30;;;16.30;99.90;;;;;;5067142;28;20024;-37
2022/08/30 05:34:16;;;;;;;4.25;3.85;;;16.30;99.90;;;;;;5067341;28;20020;-37
2022/08/30 05:36:42;;;;;;;5.57;4.57;;;16.30;99.90;;;;;;5066252;28;20032;-35
2022/08/30 05:39:09;;;;;;;3.97;3.58;;;16.40;99.90;;;;;;5066633;28;20150;-36
2022/08/30 05:41:35;;;;;;;4.90;3.90;;;16.40;99.90;;;;;;5067270;28;20052;-36
2022/08/30 05:44:02;;;;;;;3.92;3.63;;;16.40;99.90;;;;;;5065878;28;20025;-37
2022/08/30 05:46:31;;;;;;;3.80;3.47;;;16.40;99.90;;;;;;5064385;28;20364;-36
2022/08/30 05:49:00;;;;;;;3.45;3.10;;;16.50;99.90;;;;;;5065929;28;20025;-36
2022/08/30 05:51:27;;;;;;;4.40;3.88;;;16.50;99.90;;;;;;5064600;28;20048;-34
2022/08/30 05:53:54;;;;;;;4.13;3.70;;;16.50;99.90;;;;;;5065335;28;20049;-36
2022/08/30 05:56:24;;;;;;;4.85;3.65;;;16.50;99.90;;;;;;5065023;28;20020;-35
2022/08/30 05:58:49;;;;;;;4.68;3.28;;;16.50;99.90;;;;;;5066311;28;20422;-37
2022/08/30 06:01:33;;;;;;;3.53;3.10;;;16.60;99.90;;;;;;5065832;28;20024;-35
2022/08/30 06:04:01;;;;;;;5.75;3.10;;;16.60;99.90;;;;;;5065226;28;20050;-36
2022/08/30 06:06:29;;;;;;;4.93;3.38;;;16.70;99.90;;;;;;5065468;28;20056;-34
2022/08/30 06:08:55;;;;;;;3.63;3.30;;;16.70;99.90;;;;;;5066079;28;20027;-35
2022/08/30 06:11:23;;;;;;;3.75;3.45;;;16.70;99.90;;;;;;5064878;28;20020;-34
2022/08/30 06:13:50;;;;;;;2.60;2.40;;;16.70;99.90;;;;;;5065940;28;20032;-36
2022/08/30 06:16:18;;;;;;;3.65;2.70;;;16.70;99.90;;;;;;5065637;28;20082;-35
2022/08/30 06:18:44;;;;;;;2.72;2.53;;;16.80;99.90;;;;;;5065011;28;20028;-35
2022/08/30 06:21:18;;;;;;;3.83;2.83;;;16.80;99.90;;;;;;5066060;28;20434;-37
2022/08/30 06:23:44;;;;;;;2.83;2.63;;;16.80;99.90;;;;;;5064916;28;20632;-37
2022/08/30 06:26:09;;;;;;;2.53;2.30;;;16.90;99.90;;;;;;5064390;28;20521;-37
2022/08/30 06:28:36;;;;;;;2.20;2.03;;;16.90;99.90;;;;;;5065796;28;20036;-38
2022/08/30 06:31:06;;;;;;;3.40;3.10;;;17.00;99.90;;;;;;5064449;28;20770;-38
2022/08/30 06:33:32;;;;;;;2.85;2.65;;;17.00;99.90;;;;;;5064327;28;20082;-36
2022/08/30 06:36:05;;;;;;;3.00;2.72;;;17.00;99.90;;;;;;5064493;28;20033;-35
2022/08/30 06:38:31;;;;;;;2.85;2.60;;;17.10;99.90;;;;;;5064600;28;20028;-35
2022/08/30 06:40:56;;;;;;;2.88;2.58;;;17.10;99.90;;;;;;5064980;28;20318;-35
2022/08/30 06:43:22;;;;;;;3.42;2.63;;;17.10;99.90;;;;;;5066034;28;20064;-36
2022/08/30 06:45:47;;;;;;;2.85;2.50;;;17.10;99.90;;;;;;5063971;28;20031;-35
2022/08/30 06:48:13;;;;;;;3.15;2.45;;;17.20;99.90;;;;;;5064754;28;20031;-35
2022/08/30 06:50:40;;;;;;;4.03;2.53;;;17.20;99.90;;;;;;5065102;28;20472;-36
2022/08/30 06:53:07;;;;;;;2.70;2.50;;;17.30;99.90;;;;;;5065285;28;20555;-36
2022/08/30 06:55:32;;;;;;;3.88;2.78;;;17.30;99.90;;;;;;5065127;28;20464;-36
2022/08/30 06:57:59;;;;;;;2.42;2.22;;;17.40;99.90;;;;;;5064557;28;20029;-37
2022/08/30 07:00:25;;;;;;;4.25;2.22;;;17.40;99.90;;;;;;5064595;28;20044;-37
2022/08/30 07:02:50;;;;;;;3.00;2.38;;;17.40;99.90;;;;;;5065505;28;20121;-36
2022/08/30 07:05:16;;;;;;;2.15;1.95;;;17.50;99.90;;;;;;5065890;28;20033;-36
2022/08/30 07:07:42;;;;;;;2.83;2.20;;;17.50;99.90;;;;;;5064378;28;20028;-35
2022/08/30 07:10:08;;;;;;;2.90;2.00;;;17.60;99.90;;;;;;5065112;28;20020;-36
2022/08/30 07:12:35;;;;;;;2.08;1.95;;;17.60;99.90;;;;;;5065091;28;20376;-35
2022/08/30 07:15:03;;;;;;;1.77;1.63;;;17.70;99.90;;;;;;5064818;28;20121;-36
2022/08/30 07:20:13;;;;;;;1.88;1.55;;;17.70;99.90;;;;;;5065661;28;20429;-36
2022/08/30 07:22:39;;;;;;;2.22;1.65;;;17.80;99.90;;;;;;5064366;28;20491;-35
2022/08/30 07:25:04;;;;;;;1.88;1.70;;;17.90;99.90;;;;;;5064007;28;20028;-35
2022/08/30 07:27:30;;;;;;;2.08;1.58;;;17.90;99.90;;;;;;5063012;28;20132;-36
2022/08/30 07:29:57;;;;;;;2.55;1.70;;;17.90;99.90;;;;;;5065331;28;20046;-36
2022/08/30 07:32:23;;;;;;;3.72;2.20;;;18.00;99.90;;;;;;5064993;28;20070;-36
2022/08/30 07:34:48;;;;;;;1.88;1.52;;;18.10;99.90;;;;;;5063342;28;20099;-37
2022/08/30 07:37:14;;;;;;;2.38;1.60;;;18.10;99.90;;;;;;5063981;28;20058;-37
2022/08/30 07:39:39;;;;;;;2.08;1.65;;;18.20;99.90;;;;;;5064286;28;20085;-37
2022/08/30 07:42:05;;;;;;;2.47;1.80;;;18.20;99.80;;;;;;5063560;28;20123;-38
2022/08/30 07:44:31;;;;;;;3.47;1.73;;;18.30;99.80;;;;;;5064450;28;20078;-36
2022/08/30 07:46:56;;;;;;;2.25;1.65;;;18.40;99.60;;;;;;5064434;28;20026;-38
2022/08/30 07:49:22;;;;;;;1.75;1.50;;;18.40;99.00;;;;;;5063998;28;20397;-37
2022/08/30 07:51:47;;;;;;;1.23;1.10;;;18.40;99.10;;;;;;5064711;28;20044;-36
2022/08/30 07:54:13;;;;;;;2.00;1.10;;;18.50;99.10;;;;;;5064864;28;20044;-36
2022/08/30 07:56:38;;;;;;;2.47;1.20;;;18.60;99.00;;;;;;5063529;28;20041;-36
2022/08/30 07:59:04;;;;;;;1.48;1.08;;;18.70;98.80;;;;;;5064313;28;20029;-36
2022/08/30 08:01:30;;;;;;;1.67;1.23;;;18.70;98.40;;;;;;5063956;28;20032;-37
2022/08/30 08:03:55;;;;;;;2.33;1.00;;;18.80;98.20;;;;;;5063560;28;20028;-37
2022/08/30 08:06:22;;;;;;;2.08;1.00;;;18.80;98.00;;;;;;5064645;28;20046;-36
2022/08/30 08:08:48;;;;;;;0.80;0.70;;;18.90;98.00;;;;;;5063646;28;20029;-37
2022/08/30 08:11:21;;;;;;;1.13;0.98;;;19.00;97.80;;;;;;5064061;28;20028;-36
2022/08/30 08:13:48;;;;;;;1.95;1.08;;;19.00;97.40;;;;;;5063576;28;20033;-37
2022/08/30 08:16:14;;;;;;;1.23;1.13;;;19.10;97.00;;;;;;5064222;28;20094;-35
2022/08/30 08:18:39;;;;;;;2.15;1.00;;;19.20;96.50;;;;;;5062677;28;20025;-35
2022/08/30 08:21:05;;;;;;;3.47;0.90;;;19.20;96.00;;;;;;5064133;28;20067;-36
2022/08/30 08:23:30;;;;;;;2.03;1.10;;;19.20;95.40;;;;;;5062983;28;20020;-36
2022/08/30 08:25:56;;;;;;;1.20;0.80;;;19.30;95.00;;;;;;5063638;28;20500;-35
2022/08/30 08:28:23;;;;;;;2.20;1.08;;;19.30;94.90;;;;;;5064565;28;20086;-35
2022/08/30 08:30:49;;;;;;;0.80;0.80;;;19.40;94.40;;;;;;5063532;28;20025;-35
2022/08/30 08:33:16;;;;;;;3.17;1.23;;;19.40;94.60;;;;;;5065039;28;20379;-35
2022/08/30 08:35:42;;;;;;;2.10;1.10;;;19.50;94.10;;;;;;5053379;28;20016;-35
2022/08/30 08:38:07;;;;;;;2.05;1.10;;;19.50;93.60;;;;;;5062956;28;20044;-37
2022/08/30 08:40:42;;;;;;;1.20;0.90;;;19.60;93.80;;;;;;5064045;28;20028;-36
2022/08/30 08:43:12;;;;;;;1.40;1.10;;;19.70;93.80;;;;;;5063895;28;20060;-37
2022/08/30 08:46:12;;;;;;;2.20;1.20;;;19.70;93.50;;;;;;5059727;28;20016;-36
2022/08/30 08:48:37;;;;;;;2.25;1.10;;;19.80;93.20;;;;;;5059404;28;20043;-37
2022/08/30 08:53:56;;;;;;;1.17;0.73;;;19.90;93.10;;;;;;5062257;28;20059;-35
2022/08/30 08:56:22;;;;;;;2.00;0.75;;;20.00;92.70;;;;;;5064248;28;20039;-36
2022/08/30 08:58:51;;;;;;;1.60;1.00;;;20.10;92.60;;;;;;5066803;28;20028;-37
2022/08/30 09:01:19;;;;;;;2.15;1.00;;;20.10;92.20;;;;;;5068018;28;20029;-36
2022/08/30 09:03:45;;;;;;;1.23;0.95;;;20.10;91.30;;;;;;5066559;28;20032;-36
2022/08/30 09:06:31;;;;;;;1.17;0.90;;;20.20;91.20;;;;;;5066865;28;20024;-36
2022/08/30 09:08:57;;;;;;;1.70;1.10;;;20.30;90.20;;;;;;5067074;28;20045;-36
2022/08/30 09:11:25;;;;;;;1.85;1.30;;;20.30;90.50;;;;;;5067711;28;20020;-37
2022/08/30 09:13:53;;;;;;;1.25;0.90;;;20.30;90.00;;;;;;5066723;28;20115;-35
2022/08/30 09:16:44;;;;;;;2.55;1.20;;;20.30;90.00;;;;;;5066858;28;20164;-35
2022/08/30 09:19:10;;;;;;;2.58;1.00;;;20.40;90.20;;;;;;5067245;28;20032;-37
2022/08/30 09:21:36;;;;;;;2.13;1.10;;;20.50;90.30;;;;;;5065645;28;20120;-36
2022/08/30 09:24:03;;;;;;;0.98;0.90;;;20.50;90.40;;;;;;5063428;28;20111;-35
2022/08/30 09:26:35;;;;;;;1.73;0.98;;;20.50;90.20;;;;;;5063334;28;20051;-36
2022/08/30 09:29:01;;;;;;;2.45;1.00;;;20.60;90.30;;;;;;5063814;28;20028;-35
2022/08/30 09:31:32;;;;;;;1.15;0.80;;;20.60;90.10;;;;;;5063648;28;20426;-35
2022/08/30 09:34:14;;;;;;;1.20;1.00;;;20.70;89.30;;;;;;5059068;28;20029;-35
2022/08/30 09:36:45;;;;;;;0.98;0.90;;;20.80;88.20;;;;;;5063191;28;20039;-36
2022/08/30 09:39:27;;;;;;;1.95;1.10;;;20.70;87.50;;;;;;5062812;28;20120;-36
2022/08/30 09:41:53;;;;;;;1.08;0.98;;;20.70;87.20;;;;;;5059743;28;20032;-37
2022/08/30 09:44:29;;;;;;;2.97;1.20;;;20.70;87.00;;;;;;5064562;28;20033;-36
2022/08/30 09:46:57;;;;;;;1.10;1.00;;;20.80;87.00;;;;;;5063765;28;20028;-38
2022/08/30 09:49:38;;;;;;;1.17;0.88;;;20.80;87.60;;;;;;5063032;28;20050;-36
2022/08/30 09:52:29;;;;;;;1.63;1.10;;;20.90;87.70;;;;;;5063291;28;20022;-36
2022/08/30 09:55:03;;;;;;;1.80;1.20;;;20.90;87.70;;;;;;5064821;28;20099;-36
2022/08/30 09:57:29;;;;;;;1.50;0.90;;;21.00;87.90;;;;;;5064641;28;20041;-36
2022/08/30 10:00:10;;;;;;;3.25;1.00;;;21.00;88.00;;;;;;5064345;28;20017;-37
2022/08/30 10:02:55;;;;;;;2.63;0.98;;;21.10;87.70;;;;;;5060821;28;20109;-36
2022/08/30 10:06:18;;;;;;;2.72;0.80;;;21.20;87.40;;;;;;5057862;28;20195;-36
2022/08/30 10:08:56;;;;;;;1.00;0.82;;;21.30;87.50;;;;;;5040002;28;20772;-35
2022/08/30 10:11:46;;;;;;;1.42;0.93;;;21.40;87.10;;;;;;5039538;28;20132;-36
2022/08/30 10:14:30;;;;;;;1.70;0.90;;;21.40;86.80;;;;;;5055506;28;20047;-37
2022/08/30 10:17:24;;;;;;;1.50;0.93;;;21.50;87.20;;;;;;5063422;28;20037;-37
2022/08/30 10:20:19;;;;;;;1.33;0.88;;;21.60;86.90;;;;;;5064738;28;20043;-36
2022/08/30 10:22:54;;;;;;;1.92;0.90;;;21.60;86.40;;;;;;5063563;28;20032;-37
2022/08/30 10:25:29;;;;;;;1.50;0.90;;;21.70;86.40;;;;;;5064259;28;20039;-36
2022/08/30 10:28:21;;;;;;;1.30;0.90;;;21.70;85.60;;;;;;5064220;28;20034;-38
2022/08/30 10:30:53;;;;;;;2.15;0.90;;;21.80;84.80;;;;;;5062919;28;20028;-36
2022/08/30 10:33:24;;;;;;;1.67;1.00;;;21.80;84.30;;;;;;5064648;28;20339;-38
2022/08/30 10:35:54;;;;;;;2.70;0.88;;;21.80;83.50;;;;;;5064321;28;20490;-36
2022/08/30 10:38:28;;;;;;;2.85;1.00;;;21.80;83.50;;;;;;5063829;28;20074;-38
2022/08/30 10:41:15;;;;;;;2.17;0.80;;;21.90;83.60;;;;;;5061526;28;20028;-36
2022/08/30 10:43:54;;;;;;;2.67;0.80;;;22.00;83.80;;;;;;5062769;28;20383;-36
2022/08/30 10:46:59;;;;;;;2.13;0.80;;;22.10;83.50;;;;;;5063716;28;20032;-36
2022/08/30 10:49:27;;;;;;;0.90;0.80;;;22.10;82.90;;;;;;5064023;28;20048;-41
2022/08/30 10:52:11;;;;;;;1.48;0.80;;;22.20;82.50;;;;;;5063195;28;20526;-35
2022/08/30 10:54:39;;;;;;;1.40;1.00;;;22.20;82.00;;;;;;5063120;28;20491;-36
2022/08/30 10:57:05;;;;;;;2.40;0.95;;;22.20;81.50;;;;;;5064226;28;20036;-37
2022/08/30 10:59:32;;;;;;;2.78;0.82;;;22.20;81.00;;;;;;5063032;28;20027;-37
2022/08/30 11:02:06;;;;;;;1.95;1.13;;;22.20;80.40;;;;;;5063272;28;20032;-37
2022/08/30 11:05:08;;;;;;;1.17;0.88;;;22.20;80.30;;;;;;5063136;28;20123;-35
2022/08/30 11:08:01;;;;;;;0.80;0.80;;;22.20;80.40;;;;;;5061139;28;20374;-36
2022/08/30 11:11:02;;;;;;;1.48;1.10;;;22.20;80.40;;;;;;5061311;28;20044;-36
2022/08/30 11:13:30;;;;;;;2.75;1.00;;;22.30;80.10;;;;;;5059857;28;20067;-37
2022/08/30 11:16:14;;;;;;;1.60;1.00;;;22.40;79.10;;;;;;5063216;28;20040;-34
2022/08/30 11:18:51;;;;;;;1.98;1.00;;;22.40;79.20;;;;;;5060853;28;20111;-38
2022/08/30 11:21:36;;;;;;;2.22;0.95;;;22.40;79.40;;;;;;5061691;28;20461;-37
2022/08/30 11:24:10;;;;;;;1.83;1.00;;;22.50;79.60;;;;;;5058467;28;20040;-36
2022/08/30 11:26:45;;;;;;;2.35;1.30;;;22.50;79.60;;;;;;5062292;28;20044;-37
2022/08/30 11:29:31;;;;;;;3.10;1.13;;;22.50;79.40;;;;;;5063173;28;20078;-37
2022/08/30 11:31:59;;;;;;;2.15;0.90;;;22.50;79.30;;;;;;5063037;28;20138;-36
2022/08/30 11:34:43;;;;;;;2.60;0.90;;;22.60;79.30;;;;;;5062447;28;20025;-37
2022/08/30 11:37:12;;;;;;;1.27;0.98;;;22.60;78.50;;;;;;5062061;28;20032;-36
2022/08/30 11:39:47;;;;;;;1.55;0.90;;;22.60;78.50;;;;;;5063416;28;20146;-37
2022/08/30 11:42:29;;;;;;;2.20;1.15;;;22.70;78.10;;;;;;5061885;28;20033;-35
2022/08/30 11:45:22;;;;;;;2.30;1.13;;;22.80;77.70;;;;;;5061061;28;20430;-38
2022/08/30 11:47:52;;;;;;;1.80;0.98;;;22.80;77.50;;;;;;5061872;28;20526;-36
2022/08/30 11:50:39;;;;;;;1.48;1.00;;;22.80;77.70;;;;;;5063439;28;20036;-36
2022/08/30 11:53:23;;;;;;;2.45;1.00;;;22.80;77.10;;;;;;5061341;28;20105;-36
2022/08/30 11:56:03;;;;;;;1.67;1.05;;;22.90;76.50;;;;;;5061717;28;20240;-36
2022/08/30 11:58:50;;;;;;;1.60;1.10;;;22.90;76.30;;;;;;5061932;28;20045;-37
2022/08/30 12:01:32;;;;;;;1.38;1.05;;;22.90;76.10;;;;;;5062782;28;20130;-37
2022/08/30 12:04:02;;;;;;;2.50;1.40;;;23.00;76.10;;;;;;5061933;28;20041;-37
2022/08/30 12:06:39;;;;;;;1.35;0.90;;;23.00;75.60;;;;;;5055222;28;20090;-38
2022/08/30 12:09:29;;;;;;;1.30;0.90;;;23.00;75.70;;;;;;5061694;28;20028;-37
2022/08/30 12:12:05;;;;;;;2.35;1.20;;;23.10;75.60;;;;;;5051572;28;20083;-36
2022/08/30 12:14:36;;;;;;;1.15;0.80;;;23.20;75.90;;;;;;5060952;28;20025;-37
2022/08/30 12:20:28;;;;;;;1.10;1.00;;;23.20;76.20;;;;;;5061662;28;20262;-36
2022/08/30 12:22:54;;;;;;;3.78;0.90;;;23.30;75.20;;;;;;5061621;28;20029;-38
2022/08/30 12:25:27;;;;;;;0.85;0.80;;;23.30;75.30;;;;;;5063264;28;20475;-36
2022/08/30 12:28:21;;;;;;;1.08;0.90;;;23.40;75.00;;;;;;5062129;28;20081;-37
2022/08/30 12:30:47;;;;;;;1.95;0.90;;;23.40;75.10;;;;;;5059068;28;20462;-36
2022/08/30 12:33:23;;;;;;;2.10;1.10;;;23.40;74.80;;;;;;5062152;28;20539;-35
2022/08/30 12:35:49;;;;;;;3.45;1.08;;;23.50;74.80;;;;;;5062515;28;20017;-38
2022/08/30 12:38:19;;;;;;;2.05;1.05;;;23.50;74.50;;;;;;5061787;28;20041;-36
2022/08/30 12:40:55;;;;;;;1.88;0.90;;;23.50;74.70;;;;;;5062830;28;20048;-37
2022/08/30 12:43:29;;;;;;;1.38;0.90;;;23.40;74.70;;;;;;5062495;28;20028;-36
2022/08/30 12:45:59;;;;;;;1.33;0.90;;;23.50;74.10;;;;;;5062085;28;20048;-38
2022/08/30 12:48:26;;;;;;;1.13;1.00;;;23.50;73.80;;;;;;5062146;28;20438;-37
2022/08/30 12:50:54;;;;;;;4.15;1.20;;;23.50;73.40;;;;;;5062772;28;20039;-35
2022/08/30 12:53:28;;;;;;;4.93;1.30;;;23.60;72.80;;;;;;5063210;28;20051;-36
2022/08/30 12:55:59;;;;;;;1.15;1.05;;;23.60;72.30;;;;;;5063448;28;20036;-38
2022/08/30 12:58:46;;;;;;;1.38;0.90;;;23.60;71.40;;;;;;5062740;28;20369;-36
2022/08/30 13:01:11;;;;;;;0.90;0.80;;;23.60;71.70;;;;;;5063859;28;20078;-35
2022/08/30 13:03:37;;;;;;;1.95;1.08;;;23.70;72.10;;;;;;5062683;28;20038;-37
2022/08/30 13:06:06;;;;;;;1.05;0.82;;;23.70;71.40;;;;;;5063011;28;20029;-39
2022/08/30 13:08:49;;;;;;;1.20;0.90;;;23.70;71.50;;;;;;5062455;28;20029;-37
2022/08/30 13:11:21;;;;;;;0.82;0.80;;;23.80;71.80;;;;;;5043507;28;20584;-35
2022/08/30 13:13:49;;;;;;;1.08;0.85;;;23.80;71.90;;;;;;5057169;28;20047;-36